createdAt,value
2023-05-10T00:00:26.084Z,4.30
2023-05-10T00:02:54.403Z,3.30
2023-05-10T00:05:22.873Z,4.13
2023-05-10T00:07:50.934Z,4.63
2023-05-10T00:10:19.295Z,5.85
2023-05-10T00:12:47.727Z,4.78
2023-05-10T00:15:16.245Z,4.60
2023-05-10T00:17:44.473Z,3.95
2023-05-10T00:20:13.019Z,3.65
2023-05-10T00:22:41.623Z,4.85
2023-05-10T00:25:10.431Z,3.35
2023-05-10T00:27:40.596Z,3.95
2023-05-10T00:32:38.669Z,3.28
2023-05-10T00:35:07.642Z,4.47
2023-05-10T00:37:35.894Z,4.65
2023-05-10T00:40:04.352Z,4.07
2023-05-10T00:42:32.699Z,4.40
2023-05-10T00:45:01.061Z,4.47
2023-05-10T00:47:30.401Z,3.13
2023-05-10T00:49:58.865Z,3.05
2023-05-10T00:52:27.993Z,3.88
2023-05-10T00:54:56.914Z,4.07
2023-05-10T00:57:25.656Z,5.60
2023-05-10T00:59:54.021Z,3.85
2023-05-10T01:02:22.107Z,4.03
2023-05-10T01:04:51.337Z,3.95
2023-05-10T01:07:20.265Z,4.63
2023-05-10T01:09:48.655Z,4.53
2023-05-10T01:12:17.453Z,8.75
2023-05-10T01:14:46.102Z,8.82
2023-05-10T01:17:15.221Z,10.60
2023-05-10T01:19:46.485Z,12.55
2023-05-10T01:25:11.137Z,10.63
2023-05-10T01:27:58.221Z,11.95
2023-05-10T01:30:44.020Z,8.75
2023-05-10T01:33:47.038Z,9.05
2023-05-10T01:36:33.213Z,10.52
2023-05-10T01:39:19.449Z,11.15
2023-05-10T01:41:57.358Z,11.15
2023-05-10T01:44:29.070Z,10.18
2023-05-10T01:47:09.277Z,9.57
2023-05-10T01:49:50.770Z,11.25
2023-05-10T01:52:23.078Z,11.88
2023-05-10T01:57:27.450Z,8.52
2023-05-10T01:59:57.804Z,9.75
2023-05-10T02:02:27.438Z,9.73
2023-05-10T02:04:57.208Z,10.20
2023-05-10T02:07:26.419Z,9.73
2023-05-10T02:09:55.024Z,8.25
2023-05-10T02:12:25.664Z,8.65
2023-05-10T02:14:55.347Z,7.30
2023-05-10T02:17:26.526Z,7.15
2023-05-10T02:19:56.869Z,7.18
2023-05-10T02:22:27.250Z,9.65
2023-05-10T02:25:01.194Z,6.57
2023-05-10T02:27:30.911Z,7.63
2023-05-10T02:30:00.197Z,8.50
2023-05-10T02:32:30.346Z,6.43
2023-05-10T02:35:00.378Z,7.78
2023-05-10T02:37:29.324Z,9.00
2023-05-10T02:39:59.500Z,6.70
2023-05-10T02:42:29.709Z,7.32
2023-05-10T02:45:02.710Z,6.97
2023-05-10T02:47:31.363Z,7.25
2023-05-10T02:49:59.818Z,8.68
2023-05-10T02:52:37.318Z,9.90
2023-05-10T02:55:07.408Z,8.55
2023-05-10T02:57:40.248Z,20.80
2023-05-10T03:00:09.214Z,22.13
2023-05-10T03:02:37.365Z,16.52
2023-05-10T03:05:06.418Z,15.68
2023-05-10T03:07:36.179Z,13.75
2023-05-10T03:10:05.112Z,9.77
2023-05-10T03:13:02.306Z,8.55
2023-05-10T03:15:36.773Z,6.35
2023-05-10T03:18:23.206Z,6.97
2023-05-10T03:20:56.488Z,7.50
2023-05-10T03:23:40.507Z,7.20
2023-05-10T03:26:10.157Z,7.90
2023-05-10T03:28:39.047Z,7.32
2023-05-10T03:31:08.422Z,8.43
2023-05-10T03:33:36.684Z,8.05
2023-05-10T03:36:05.336Z,8.52
2023-05-10T03:38:33.387Z,8.23
2023-05-10T03:41:01.668Z,7.97
2023-05-10T03:43:29.881Z,9.35
2023-05-10T03:45:58.232Z,9.13
2023-05-10T03:48:26.451Z,8.45
2023-05-10T03:50:54.950Z,8.02
2023-05-10T03:53:23.212Z,8.43
2023-05-10T03:55:51.540Z,8.75
2023-05-10T03:58:19.773Z,8.07
2023-05-10T04:00:48.035Z,8.77
2023-05-10T04:03:16.669Z,10.02
2023-05-10T04:05:45.165Z,8.75
2023-05-10T04:08:13.624Z,9.20
2023-05-10T04:10:41.988Z,8.23
2023-05-10T04:13:10.195Z,9.30
2023-05-10T04:15:38.398Z,9.52
2023-05-10T04:18:08.690Z,7.70
2023-05-10T04:20:37.083Z,8.57
2023-05-10T04:23:05.265Z,9.55
2023-05-10T04:25:36.035Z,9.02
2023-05-10T04:28:04.287Z,9.00
2023-05-10T04:30:32.812Z,8.65
2023-05-10T04:33:00.956Z,11.90
2023-05-10T04:35:29.600Z,9.77
2023-05-10T04:37:57.788Z,9.45
2023-05-10T04:40:26.266Z,9.30
2023-05-10T04:42:54.290Z,13.35
2023-05-10T04:45:22.539Z,10.95
2023-05-10T04:47:50.870Z,8.45
2023-05-10T04:50:19.356Z,7.15
2023-05-10T04:52:47.534Z,7.45
2023-05-10T04:55:15.762Z,7.50
2023-05-10T04:57:44.044Z,8.35
2023-05-10T05:00:12.973Z,7.22
2023-05-10T05:02:45.071Z,6.82
2023-05-10T05:07:42.378Z,7.70
2023-05-10T05:10:10.993Z,5.40
2023-05-10T05:12:39.187Z,7.25
2023-05-10T05:15:09.674Z,8.15
2023-05-10T05:17:38.442Z,8.82
2023-05-10T05:20:07.422Z,8.60
2023-05-10T05:22:37.238Z,10.45
2023-05-10T05:25:06.068Z,10.98
2023-05-10T05:27:34.399Z,9.55
2023-05-10T05:30:02.670Z,9.07
2023-05-10T05:32:30.913Z,14.30
2023-05-10T05:34:59.259Z,14.27
2023-05-10T05:37:27.490Z,13.35
2023-05-10T05:39:55.679Z,14.80
2023-05-10T05:42:23.908Z,15.38
2023-05-10T05:44:52.191Z,16.58
2023-05-10T05:47:20.410Z,16.70
2023-05-10T05:49:48.693Z,11.88
2023-05-10T05:52:16.772Z,15.68
2023-05-10T05:54:45.055Z,15.43
2023-05-10T05:57:13.248Z,12.50
2023-05-10T05:59:41.684Z,13.68
2023-05-10T06:02:11.943Z,13.82
2023-05-10T06:04:41.591Z,16.35
2023-05-10T06:07:12.664Z,12.90
2023-05-10T06:09:41.162Z,15.80
2023-05-10T06:12:09.457Z,11.13
2023-05-10T06:14:37.915Z,12.60
2023-05-10T06:17:06.185Z,9.77
2023-05-10T06:19:34.824Z,9.25
2023-05-10T06:22:02.975Z,11.15
2023-05-10T06:24:31.476Z,9.27
2023-05-10T06:26:59.653Z,10.23
2023-05-10T06:29:28.343Z,9.10
2023-05-10T06:31:56.459Z,9.40
2023-05-10T06:34:24.815Z,7.95
2023-05-10T06:36:52.993Z,9.95
2023-05-10T06:39:21.258Z,10.38
2023-05-10T06:41:49.399Z,8.40
2023-05-10T06:44:17.769Z,9.27
2023-05-10T06:46:46.046Z,10.13
2023-05-10T06:49:14.673Z,10.15
2023-05-10T06:51:42.781Z,8.48
2023-05-10T06:54:11.117Z,9.02
2023-05-10T06:56:39.361Z,9.73
2023-05-10T06:59:07.847Z,8.40
2023-05-10T07:01:36.101Z,8.30
2023-05-10T07:04:04.506Z,8.18
2023-05-10T07:06:33.806Z,8.98
2023-05-10T07:09:02.638Z,10.05
2023-05-10T07:11:30.803Z,10.32
2023-05-10T07:13:59.405Z,9.63
2023-05-10T07:16:27.626Z,9.18
2023-05-10T07:18:55.981Z,7.65
2023-05-10T07:21:24.375Z,8.20
2023-05-10T07:23:52.930Z,9.23
2023-05-10T07:26:21.247Z,10.40
2023-05-10T07:28:49.575Z,9.35
2023-05-10T07:31:17.801Z,11.43
2023-05-10T07:33:46.054Z,9.48
2023-05-10T07:36:14.299Z,11.48
2023-05-10T07:38:42.809Z,10.40
2023-05-10T07:41:13.282Z,9.38
2023-05-10T07:43:41.601Z,11.15
2023-05-10T07:46:09.824Z,11.27
2023-05-10T07:48:39.125Z,9.13
2023-05-10T07:51:07.220Z,9.95
2023-05-10T07:53:35.506Z,9.88
2023-05-10T07:56:22.211Z,9.18
2023-05-10T07:58:50.714Z,9.23
2023-05-10T08:01:18.876Z,10.10
2023-05-10T08:03:47.476Z,7.95
2023-05-10T08:06:16.925Z,8.95
2023-05-10T08:08:45.524Z,7.35
2023-05-10T08:11:13.592Z,8.43
2023-05-10T08:13:41.963Z,9.20
2023-05-10T08:16:10.224Z,7.57
2023-05-10T08:18:39.339Z,8.77
2023-05-10T08:21:07.657Z,8.20
2023-05-10T08:23:35.851Z,8.60
2023-05-10T08:26:04.319Z,8.18
2023-05-10T08:28:32.584Z,9.48
2023-05-10T08:31:01.111Z,8.95
2023-05-10T08:33:29.280Z,8.40
2023-05-10T08:35:59.199Z,9.00
2023-05-10T08:38:27.407Z,7.88
2023-05-10T08:40:57.177Z,9.85
2023-05-10T08:43:30.327Z,7.30
2023-05-10T08:46:01.729Z,8.80
2023-05-10T08:48:31.555Z,9.77
2023-05-10T08:51:01.945Z,8.48
2023-05-10T08:53:34.663Z,7.85
2023-05-10T08:56:04.310Z,7.53
2023-05-10T08:58:33.314Z,8.75
2023-05-10T09:01:03.121Z,14.73
2023-05-10T09:03:32.304Z,10.45
2023-05-10T09:06:00.624Z,10.05
2023-05-10T09:08:29.363Z,8.02
2023-05-10T09:10:57.756Z,6.63
2023-05-10T09:13:29.007Z,8.68
2023-05-10T09:16:00.353Z,10.32
2023-05-10T09:18:32.799Z,9.23
2023-05-10T09:21:00.983Z,10.98
2023-05-10T09:23:29.216Z,7.43
2023-05-10T09:26:07.558Z,8.15
2023-05-10T09:28:56.105Z,7.53
2023-05-10T09:31:24.819Z,8.10
2023-05-10T09:33:53.778Z,9.68
2023-05-10T09:36:22.077Z,8.25
2023-05-10T09:38:51.520Z,7.72
2023-05-10T09:41:23.987Z,7.68
2023-05-10T09:43:57.364Z,8.10
2023-05-10T09:46:25.714Z,9.27
2023-05-10T09:48:53.945Z,7.30
2023-05-10T09:51:23.590Z,8.52
2023-05-10T09:54:11.873Z,8.55
2023-05-10T09:56:40.748Z,9.50
2023-05-10T09:59:12.594Z,9.07
2023-05-10T10:01:41.496Z,8.93
2023-05-10T10:04:11.282Z,8.25
2023-05-10T10:06:42.684Z,7.57
2023-05-10T10:09:11.229Z,8.93
2023-05-10T10:11:40.177Z,9.27
2023-05-10T10:14:08.375Z,8.65
2023-05-10T10:21:29.776Z,9.80
2023-05-10T10:23:58.042Z,9.48
2023-05-10T10:26:26.827Z,8.68
2023-05-10T10:29:23.131Z,11.40
2023-05-10T10:32:13.783Z,10.32
2023-05-10T10:34:43.196Z,11.57
2023-05-10T10:37:11.572Z,11.18
2023-05-10T10:39:39.801Z,11.45
2023-05-10T10:42:08.102Z,9.02
2023-05-10T10:44:38.729Z,8.82
2023-05-10T10:47:13.241Z,7.78
2023-05-10T10:49:41.484Z,8.15
2023-05-10T10:52:32.020Z,8.10
2023-05-10T10:55:04.578Z,7.68
2023-05-10T10:57:48.654Z,8.30
2023-05-10T11:00:24.441Z,7.18
2023-05-10T11:03:01.971Z,7.07
2023-05-10T11:05:52.174Z,6.72
2023-05-10T11:08:30.042Z,8.25
2023-05-10T11:11:01.008Z,8.38
2023-05-10T11:13:39.888Z,7.40
2023-05-10T11:16:25.840Z,8.98
2023-05-10T11:19:14.230Z,25.75
2023-05-10T11:21:52.581Z,27.45
2023-05-10T11:24:23.744Z,23.42
2023-05-10T11:26:52.881Z,17.42
2023-05-10T11:29:21.510Z,11.10
2023-05-10T11:31:51.020Z,8.20
2023-05-10T11:34:30.078Z,16.95
2023-05-10T11:36:59.538Z,21.77
2023-05-10T11:39:29.676Z,12.80
2023-05-10T11:41:58.720Z,13.57
2023-05-10T11:44:34.293Z,11.77
2023-05-10T11:47:03.327Z,8.40
2023-05-10T11:49:31.661Z,9.88
2023-05-10T11:52:10.260Z,8.77
2023-05-10T11:54:56.726Z,10.20
2023-05-10T11:57:29.120Z,8.13
2023-05-10T11:59:59.133Z,8.50
2023-05-10T12:02:28.014Z,7.15
2023-05-10T12:04:57.491Z,9.20
2023-05-10T12:07:27.429Z,6.82
2023-05-10T12:10:13.556Z,6.50
2023-05-10T12:12:44.340Z,6.97
2023-05-10T12:15:23.853Z,6.13
2023-05-10T12:17:53.071Z,6.25
2023-05-10T12:20:26.044Z,5.78
2023-05-10T12:22:57.742Z,6.53
2023-05-10T12:25:33.126Z,6.55
2023-05-10T12:28:04.859Z,5.90
2023-05-10T12:30:34.982Z,5.97
2023-05-10T12:33:09.260Z,5.63
2023-05-10T12:35:57.127Z,6.15
2023-05-10T12:38:39.558Z,6.55
2023-05-10T12:41:13.247Z,6.72
2023-05-10T12:43:42.316Z,6.38
2023-05-10T12:46:15.771Z,5.57
2023-05-10T12:48:45.325Z,4.95
2023-05-10T12:51:13.833Z,4.43
2023-05-10T12:53:45.121Z,4.15
2023-05-10T12:56:17.910Z,4.70
2023-05-10T12:58:47.239Z,4.65
2023-05-10T13:01:16.209Z,4.13
2023-05-10T13:03:44.602Z,4.97
2023-05-10T13:06:12.871Z,5.07
2023-05-10T13:08:41.209Z,5.55
2023-05-10T13:11:09.545Z,7.07
2023-05-10T13:13:37.792Z,6.30
2023-05-10T13:16:06.370Z,5.25
2023-05-10T13:18:34.746Z,5.43
2023-05-10T13:21:03.481Z,7.40
2023-05-10T13:23:38.011Z,4.90
2023-05-10T13:26:06.534Z,5.10
2023-05-10T13:28:34.709Z,5.28
2023-05-10T13:31:03.353Z,6.07
2023-05-10T13:33:31.473Z,4.43
2023-05-10T13:36:01.921Z,4.45
2023-05-10T13:38:30.165Z,5.38
2023-05-10T13:40:58.343Z,5.43
2023-05-10T13:43:26.549Z,5.28
2023-05-10T13:45:54.926Z,5.97
2023-05-10T13:48:23.087Z,6.32
2023-05-10T13:50:51.440Z,5.55
2023-05-10T13:53:19.698Z,5.70
2023-05-10T13:55:48.511Z,5.38
2023-05-10T13:58:16.639Z,5.13
2023-05-10T14:00:45.005Z,6.90
2023-05-10T14:03:16.214Z,5.88
2023-05-10T14:05:45.678Z,6.05
2023-05-10T14:08:13.835Z,5.68
2023-05-10T14:10:42.186Z,6.13
2023-05-10T14:13:10.413Z,6.00
2023-05-10T14:15:38.986Z,6.38
2023-05-10T14:18:07.155Z,6.88
2023-05-10T14:20:35.588Z,7.38
2023-05-10T14:23:03.941Z,5.50
2023-05-10T14:25:32.136Z,5.85
2023-05-10T14:28:00.436Z,7.20
2023-05-10T14:30:28.684Z,7.72
2023-05-10T15:59:27.542Z,8.25
2023-05-10T16:01:55.931Z,6.88
2023-05-10T16:04:24.827Z,7.97
2023-05-10T16:06:52.962Z,5.93
2023-05-10T16:09:21.489Z,7.18
2023-05-10T16:11:52.073Z,7.90
2023-05-10T16:14:20.438Z,5.70
2023-05-10T16:16:48.916Z,7.07
2023-05-10T16:19:17.367Z,5.88
2023-05-10T16:21:45.575Z,6.80
2023-05-10T16:24:13.911Z,7.57
2023-05-10T16:26:42.094Z,7.43
2023-05-10T16:29:10.561Z,8.23
2023-05-10T16:31:38.668Z,7.47
2023-05-10T16:34:06.986Z,5.75
2023-05-10T16:36:35.301Z,7.78
2023-05-10T16:39:03.634Z,6.35
2023-05-10T16:41:34.982Z,8.20
2023-05-10T16:44:03.778Z,7.38
2023-05-10T16:46:31.951Z,7.40
2023-05-10T16:49:00.744Z,7.85
2023-05-10T16:51:29.090Z,8.10
2023-05-10T16:53:57.606Z,7.50
2023-05-10T16:56:25.711Z,8.23
2023-05-10T16:58:54.064Z,10.70
2023-05-10T17:01:23.785Z,7.45
2023-05-10T17:03:54.195Z,8.50
2023-05-10T17:06:22.339Z,10.93
2023-05-10T17:08:50.714Z,6.93
2023-05-10T17:11:18.903Z,6.20
2023-05-10T17:13:47.264Z,7.55
2023-05-10T17:16:15.637Z,9.23
2023-05-10T17:18:43.936Z,8.35
2023-05-10T17:21:12.349Z,7.30
2023-05-10T17:23:40.427Z,7.35
2023-05-10T17:26:10.175Z,7.10
2023-05-10T17:28:39.683Z,6.60
2023-05-10T17:31:08.049Z,7.60
2023-05-10T17:33:36.798Z,6.60
2023-05-10T17:36:05.155Z,8.45
2023-05-10T17:38:33.396Z,9.82
2023-05-10T17:41:01.701Z,10.27
2023-05-10T17:43:30.070Z,9.50
2023-05-10T17:45:58.316Z,8.00
2023-05-10T17:48:26.583Z,9.57
2023-05-10T17:50:54.986Z,8.75
2023-05-10T17:53:23.283Z,7.57
2023-05-10T17:55:52.474Z,8.27
2023-05-10T17:58:20.832Z,8.07
2023-05-10T18:00:49.367Z,7.45
2023-05-10T18:03:17.583Z,8.00
2023-05-10T18:05:45.819Z,7.47
2023-05-10T18:08:14.421Z,9.10
2023-05-10T18:10:42.664Z,9.18
2023-05-10T18:13:10.895Z,9.38
2023-05-10T18:15:39.206Z,9.15
2023-05-10T18:18:07.491Z,9.20
2023-05-10T18:20:35.922Z,8.10
2023-05-10T18:23:04.044Z,9.82
2023-05-10T18:25:32.362Z,9.82
2023-05-10T18:28:00.556Z,11.35
2023-05-10T18:30:29.066Z,12.63
2023-05-10T18:32:57.341Z,11.50
2023-05-10T18:35:25.743Z,9.18
2023-05-10T18:37:53.962Z,9.57
2023-05-10T18:40:22.473Z,9.82
2023-05-10T18:42:50.595Z,9.02
2023-05-10T18:45:19.325Z,8.15
2023-05-10T18:47:47.787Z,7.18
2023-05-10T18:50:16.088Z,8.88
2023-05-10T18:52:44.238Z,8.27
2023-05-10T18:55:12.620Z,9.43
2023-05-10T18:57:40.825Z,10.45
2023-05-10T19:00:13.491Z,11.70
2023-05-10T19:02:41.904Z,14.18
2023-05-10T19:05:10.497Z,16.50
2023-05-10T19:07:38.686Z,19.02
2023-05-10T19:10:07.614Z,18.38
2023-05-10T19:12:35.998Z,17.35
2023-05-10T19:15:04.311Z,13.73
2023-05-10T19:17:32.716Z,16.27
2023-05-10T19:20:02.521Z,14.10
2023-05-10T19:25:02.220Z,20.95
2023-05-10T19:27:31.638Z,19.77
2023-05-10T19:29:59.892Z,20.00
2023-05-10T19:32:28.411Z,21.55
2023-05-10T19:34:56.712Z,16.15
2023-05-10T19:37:25.000Z,15.25
2023-05-10T19:39:53.279Z,15.95
2023-05-10T19:42:22.006Z,14.52
2023-05-10T19:44:50.278Z,16.30
2023-05-10T19:47:18.615Z,14.57
2023-05-10T19:49:46.907Z,14.45
2023-05-10T19:52:15.187Z,15.60
2023-05-10T19:54:44.145Z,15.52
2023-05-10T19:57:13.961Z,13.95
2023-05-10T19:59:42.698Z,15.57
2023-05-10T20:02:11.081Z,14.38
2023-05-10T20:04:39.331Z,15.98
2023-05-10T20:07:07.610Z,15.20
2023-05-10T20:09:36.005Z,17.23
2023-05-10T20:12:04.353Z,18.20
2023-05-10T20:14:32.838Z,19.65
2023-05-10T20:17:01.446Z,19.48
2023-05-10T20:19:29.750Z,19.50
2023-05-10T20:21:57.927Z,16.20
2023-05-10T20:24:26.108Z,13.90
2023-05-10T20:26:54.445Z,16.23
2023-05-10T20:29:22.699Z,16.13
2023-05-10T20:31:51.286Z,14.75
2023-05-10T20:34:19.489Z,12.70
2023-05-10T20:36:47.899Z,12.82
2023-05-10T20:39:16.313Z,16.30
2023-05-10T20:41:44.702Z,16.90
2023-05-10T20:44:13.246Z,17.38
2023-05-10T20:46:41.676Z,17.77
2023-05-10T20:49:10.185Z,17.30
2023-05-10T20:51:38.421Z,19.88
2023-05-10T20:54:06.791Z,21.55
2023-05-10T20:56:35.057Z,23.30
2023-05-10T20:59:03.693Z,23.65
2023-05-10T21:01:31.990Z,25.63
2023-05-10T21:04:00.361Z,28.95
2023-05-10T21:06:28.767Z,24.50
2023-05-10T21:08:56.987Z,19.63
2023-05-10T21:11:25.323Z,20.52
2023-05-10T21:13:53.709Z,20.30
2023-05-10T21:16:22.218Z,22.77
2023-05-10T21:18:50.561Z,22.00
2023-05-10T21:21:18.828Z,24.27
2023-05-10T21:23:47.703Z,25.92
2023-05-10T21:26:16.249Z,25.98
2023-05-10T21:28:45.576Z,24.30
2023-05-10T21:31:13.924Z,23.92
2023-05-10T21:33:42.270Z,24.25
2023-05-10T21:36:10.531Z,20.50
2023-05-10T21:38:38.676Z,20.33
2023-05-10T21:41:10.049Z,23.00
2023-05-10T21:43:38.381Z,22.63
2023-05-10T21:46:06.738Z,23.90
2023-05-10T21:48:37.933Z,21.73
2023-05-10T21:51:07.065Z,25.17
2023-05-10T21:53:37.572Z,27.45
2023-05-10T21:56:06.499Z,28.58
2023-05-10T21:58:34.755Z,28.50
2023-05-10T22:01:03.343Z,27.70
2023-05-10T22:03:31.848Z,26.52
2023-05-10T22:06:00.213Z,24.13
2023-05-10T22:08:28.297Z,21.80
2023-05-10T22:10:56.588Z,21.23
2023-05-10T22:13:25.717Z,21.35
2023-05-10T22:15:54.068Z,22.20
2023-05-10T22:18:22.346Z,20.83
2023-05-10T22:20:50.922Z,21.17
2023-05-10T22:23:19.063Z,19.65
2023-05-10T22:25:47.433Z,21.83
2023-05-10T22:28:15.654Z,20.67
2023-05-10T22:30:45.644Z,21.95
2023-05-10T22:33:14.194Z,21.58
2023-05-10T22:35:42.246Z,22.00
2023-05-10T22:38:10.596Z,20.92
2023-05-10T22:40:39.083Z,22.15
2023-05-10T22:43:07.451Z,22.02
2023-05-10T22:48:24.338Z,25.77
2023-05-10T22:50:52.583Z,27.98
2023-05-10T22:53:20.787Z,28.75
2023-05-10T22:55:49.120Z,26.08
2023-05-10T22:58:17.364Z,24.88
2023-05-10T23:00:45.753Z,25.48
2023-05-10T23:03:14.106Z,24.48
2023-05-10T23:05:42.292Z,23.17
2023-05-10T23:08:10.533Z,22.92
2023-05-10T23:10:38.893Z,18.35
2023-05-10T23:13:07.107Z,19.25
2023-05-10T23:15:35.414Z,18.67
2023-05-10T23:18:03.755Z,19.10
2023-05-10T23:20:32.325Z,19.10
2023-05-10T23:23:00.406Z,18.63
2023-05-10T23:25:28.803Z,18.13
2023-05-10T23:27:56.994Z,21.17
2023-05-10T23:30:25.235Z,27.25
2023-05-10T23:32:53.484Z,29.10
2023-05-10T23:35:21.641Z,26.67
2023-05-10T23:37:49.834Z,25.67
2023-05-10T23:40:18.510Z,27.67
2023-05-10T23:42:46.956Z,24.35
2023-05-10T23:45:15.130Z,23.95
2023-05-10T23:47:43.432Z,24.25
2023-05-10T23:50:12.027Z,25.83
2023-05-10T23:52:40.150Z,21.17
2023-05-10T23:55:09.092Z,21.05
2023-05-10T23:57:37.296Z,21.55
